PWSweather.com
Personal Weather Stations
Station Observations
SHAHALMS1
Eftra, Falkenberg, HA

EftraFalkenberg, HA

Lat: 56.85, Lon: 12.65

Elevation: 140

Station Type:

http://hem.passagen.se/risarp101

High Low Average
Temperature 69.1°F20.6°C 49.1°F9.5°C 58.0°F14.4°C
Dew Point 49.7°F9.8°C 43.5°F6.4°C 46.5°F8.1°C
Winds 7.9 mph 12.7 kmh Calm Calm 2.0 mph SE3.2 kmh SE
Wind Gusts 16.1 mph25.9 kmh -- 5.0 mph8.0 kmh
Humidity 84% 47% 67%
Pressure 30.04 in1017.3 mb 29.95 in1014.2 mb -
Precipitation 0.00 in0.0 mm - -
Hour Temp Dew Point Humidity Winds Wind Gusts Pressure Precip Precip Rate Daily Precip Total
12:00 AM 53.4°F11.9°C 48.1°F8.9°C 82% Calm Calm -- 30.01 in1016.3 mb 0.00 in0.0 mm 0.00 in0.0 mm 0.00 in0.0 mm
12:15 AM 53.2°F11.8°C 47.9°F8.8°C 82% Calm Calm -- 30.01 in1016.3 mb 0.00 in0.0 mm 0.00 in0.0 mm 0.00 in0.0 mm
12:30 AM 52.5°F11.4°C 46.9°F8.3°C 81% Calm Calm -- 30.01 in1016.3 mb 0.00 in0.0 mm 0.00 in0.0 mm 0.00 in0.0 mm
12:45 AM 52.2°F11.2°C 47.2°F8.4°C 83% Calm Calm -- 30.01 in1016.3 mb 0.00 in0.0 mm 0.00 in0.0 mm 0.00 in0.0 mm
01:00 AM 51.8°F11.0°C 46.5°F8.1°C 82% Calm Calm -- 30.01 in1016.3 mb 0.00 in0.0 mm 0.00 in0.0 mm 0.00 in0.0 mm
01:15 AM 51.4°F10.8°C 46.1°F7.8°C 82% Calm Calm -- 30.01 in1016.3 mb 0.00 in0.0 mm 0.00 in0.0 mm 0.00 in0.0 mm
01:30 AM 51.3°F10.7°C 46.3°F7.9°C 83% Calm Calm -- 30.01 in1016.3 mb 0.00 in0.0 mm 0.00 in0.0 mm 0.00 in0.0 mm
01:45 AM 51.1°F10.6°C 46.1°F7.8°C 83% Calm Calm -- 29.98 in1015.2 mb 0.00 in0.0 mm 0.00 in0.0 mm 0.00 in0.0 mm
02:00 AM 51.1°F10.6°C 46.1°F7.8°C 83% Calm Calm -- 29.98 in1015.2 mb 0.00 in0.0 mm 0.00 in0.0 mm 0.00 in0.0 mm
02:15 AM 50.9°F10.5°C 45.9°F7.7°C 83% Calm Calm -- 29.98 in1015.2 mb 0.00 in0.0 mm 0.00 in0.0 mm 0.00 in0.0 mm
02:30 AM 50.7°F10.4°C 46.1°F7.8°C 84% Calm Calm -- 30.01 in1016.3 mb 0.00 in0.0 mm 0.00 in0.0 mm 0.00 in0.0 mm
02:45 AM 50.5°F10.3°C 45.6°F7.6°C 83% Calm Calm -- 30.01 in1016.3 mb 0.00 in0.0 mm 0.00 in0.0 mm 0.00 in0.0 mm
03:00 AM 50.4°F10.2°C 45.4°F7.4°C 83% Calm Calm -- 30.01 in1016.3 mb 0.00 in0.0 mm 0.00 in0.0 mm 0.00 in0.0 mm
03:15 AM 50.4°F10.2°C 45.4°F7.4°C 83% Calm Calm -- 29.98 in1015.2 mb 0.00 in0.0 mm 0.00 in0.0 mm 0.00 in0.0 mm
03:30 AM 50.7°F10.4°C 46.1°F7.8°C 84% Calm Calm -- 30.01 in1016.3 mb 0.00 in0.0 mm 0.00 in0.0 mm 0.00 in0.0 mm
03:45 AM 51.1°F10.6°C 46.4°F8.0°C 84% Calm Calm -- 29.98 in1015.2 mb 0.00 in0.0 mm 0.00 in0.0 mm 0.00 in0.0 mm
04:00 AM 51.1°F10.6°C 46.1°F7.8°C 83% Calm Calm -- 29.98 in1015.2 mb 0.00 in0.0 mm 0.00 in0.0 mm 0.00 in0.0 mm
04:15 AM 50.9°F10.5°C 45.9°F7.7°C 83% Calm Calm -- 29.98 in1015.2 mb 0.00 in0.0 mm 0.00 in0.0 mm 0.00 in0.0 mm
04:30 AM 50.4°F10.2°C 45.1°F7.3°C 82% Calm Calm -- 30.01 in1016.3 mb 0.00 in0.0 mm 0.00 in0.0 mm 0.00 in0.0 mm
04:45 AM 49.8°F9.9°C 44.5°F6.9°C 82% Calm Calm -- 29.98 in1015.2 mb 0.00 in0.0 mm 0.00 in0.0 mm 0.00 in0.0 mm
05:00 AM 49.5°F9.7°C 43.9°F6.6°C 81% Calm Calm -- 30.01 in1016.3 mb 0.00 in0.0 mm 0.00 in0.0 mm 0.00 in0.0 mm
05:15 AM 49.1°F9.5°C 43.5°F6.4°C 81% Calm Calm -- 30.01 in1016.3 mb 0.00 in0.0 mm 0.00 in0.0 mm 0.00 in0.0 mm
05:30 AM 49.3°F9.6°C 44.0°F6.7°C 82% Calm Calm -- 30.01 in1016.3 mb 0.00 in0.0 mm 0.00 in0.0 mm 0.00 in0.0 mm
05:45 AM 49.6°F9.8°C 44.4°F6.9°C 82% Calm Calm -- 30.01 in1016.3 mb 0.00 in0.0 mm 0.00 in0.0 mm 0.00 in0.0 mm
06:00 AM 50.2°F10.1°C 44.9°F7.2°C 82% Calm Calm -- 30.04 in1017.3 mb 0.00 in0.0 mm 0.00 in0.0 mm 0.00 in0.0 mm
06:15 AM 50.7°F10.4°C 45.1°F7.3°C 81% Calm Calm -- 30.01 in1016.3 mb 0.00 in0.0 mm 0.00 in0.0 mm 0.00 in0.0 mm
06:30 AM 51.4°F10.8°C 45.8°F7.7°C 81% Calm Calm -- 30.01 in1016.3 mb 0.00 in0.0 mm 0.00 in0.0 mm 0.00 in0.0 mm
06:45 AM 52.3°F11.3°C 46.4°F8.0°C 80% Calm Calm -- 30.04 in1017.3 mb 0.00 in0.0 mm 0.00 in0.0 mm 0.00 in0.0 mm
07:00 AM 53.4°F11.9°C 46.7°F8.2°C 78% Calm Calm -- 30.01 in1016.3 mb 0.00 in0.0 mm 0.00 in0.0 mm 0.00 in0.0 mm
07:15 AM 54.3°F12.4°C 47.6°F8.7°C 78% Calm Calm -- 30.01 in1016.3 mb 0.00 in0.0 mm 0.00 in0.0 mm 0.00 in0.0 mm
07:30 AM 55.2°F12.9°C 48.5°F9.2°C 78% Calm Calm -- 30.01 in1016.3 mb 0.00 in0.0 mm 0.00 in0.0 mm 0.00 in0.0 mm
07:45 AM 56.1°F13.4°C 49.0°F9.4°C 77% 1.0 mph WNW1.6 kmh WNW 3.9 mph6.3 kmh 30.01 in1016.3 mb 0.00 in0.0 mm 0.00 in0.0 mm 0.00 in0.0 mm
08:00 AM 56.8°F13.8°C 48.6°F9.2°C 74% 1.9 mph N3.1 kmh N 4.7 mph7.6 kmh 30.01 in1016.3 mb 0.00 in0.0 mm 0.00 in0.0 mm 0.00 in0.0 mm
08:15 AM 57.4°F14.1°C 47.7°F8.7°C 70% 5.7 mph N9.2 kmh N 11.8 mph19.0 kmh 30.01 in1016.3 mb 0.00 in0.0 mm 0.00 in0.0 mm 0.00 in0.0 mm
08:30 AM 58.3°F14.6°C 48.5°F9.2°C 70% 6.0 mph N9.7 kmh N 9.7 mph15.6 kmh 30.01 in1016.3 mb 0.00 in0.0 mm 0.00 in0.0 mm 0.00 in0.0 mm
08:45 AM 59.0°F15.0°C 48.8°F9.3°C 69% 6.1 mph N9.8 kmh N 14.0 mph22.5 kmh 30.01 in1016.3 mb 0.00 in0.0 mm 0.00 in0.0 mm 0.00 in0.0 mm
09:00 AM 59.9°F15.5°C 48.9°F9.4°C 67% 5.8 mph N9.3 kmh N 14.0 mph22.5 kmh 30.01 in1016.3 mb 0.00 in0.0 mm 0.00 in0.0 mm 0.00 in0.0 mm
09:15 AM 60.8°F16.0°C 49.0°F9.4°C 65% 5.0 mph N8.0 kmh N 11.8 mph19.0 kmh 30.01 in1016.3 mb 0.00 in0.0 mm 0.00 in0.0 mm 0.00 in0.0 mm
09:30 AM 61.5°F16.4°C 49.6°F9.8°C 65% 5.4 mph N8.7 kmh N 14.0 mph22.5 kmh 30.01 in1016.3 mb 0.00 in0.0 mm 0.00 in0.0 mm 0.00 in0.0 mm
09:45 AM 62.1°F16.7°C 48.4°F9.1°C 61% 7.6 mph N12.2 kmh N 15.4 mph24.8 kmh 30.01 in1016.3 mb 0.00 in0.0 mm 0.00 in0.0 mm 0.00 in0.0 mm
10:00 AM 62.8°F17.1°C 48.2°F9.0°C 59% 6.2 mph N10.0 kmh N 16.1 mph25.9 kmh 30.01 in1016.3 mb 0.00 in0.0 mm 0.00 in0.0 mm 0.00 in0.0 mm
10:15 AM 63.5°F17.5°C 48.5°F9.2°C 58% 6.1 mph N9.8 kmh N 11.8 mph19.0 kmh 30.04 in1017.3 mb 0.00 in0.0 mm 0.00 in0.0 mm 0.00 in0.0 mm
10:30 AM 64.0°F17.8°C 49.0°F9.4°C 58% 5.8 mph N9.3 kmh N 15.0 mph24.1 kmh 30.01 in1016.3 mb 0.00 in0.0 mm 0.00 in0.0 mm 0.00 in0.0 mm
10:45 AM 64.9°F18.3°C 49.3°F9.6°C 57% 3.0 mph NNE4.8 kmh NNE 10.7 mph17.2 kmh 30.01 in1016.3 mb 0.00 in0.0 mm 0.00 in0.0 mm 0.00 in0.0 mm
11:00 AM 65.5°F18.6°C 48.4°F9.1°C 54% 4.5 mph N7.2 kmh N 11.8 mph19.0 kmh 30.04 in1017.3 mb 0.00 in0.0 mm 0.00 in0.0 mm 0.00 in0.0 mm
11:15 AM 65.7°F18.7°C 48.6°F9.2°C 54% 6.0 mph N9.7 kmh N 15.4 mph24.8 kmh 30.01 in1016.3 mb 0.00 in0.0 mm 0.00 in0.0 mm 0.00 in0.0 mm
11:30 AM 66.2°F19.0°C 48.0°F8.9°C 52% 4.5 mph N7.2 kmh N 15.7 mph25.3 kmh 30.01 in1016.3 mb 0.00 in0.0 mm 0.00 in0.0 mm 0.00 in0.0 mm
11:45 AM 64.8°F18.2°C 46.2°F7.9°C 51% 5.0 mph N8.0 kmh N 8.9 mph14.3 kmh 30.01 in1016.3 mb 0.00 in0.0 mm 0.00 in0.0 mm 0.00 in0.0 mm
12:00 PM 66.2°F19.0°C 48.0°F8.9°C 52% 1.6 mph NW2.6 kmh NW 5.4 mph8.7 kmh 30.01 in1016.3 mb 0.00 in0.0 mm 0.00 in0.0 mm 0.00 in0.0 mm
12:15 PM 66.6°F19.2°C 46.8°F8.2°C 49% 4.3 mph N6.9 kmh N 10.4 mph16.7 kmh 30.01 in1016.3 mb 0.00 in0.0 mm 0.00 in0.0 mm 0.00 in0.0 mm
12:30 PM 66.7°F19.3°C 47.5°F8.6°C 50% 1.9 mph N3.1 kmh N 6.4 mph10.3 kmh 30.01 in1016.3 mb 0.00 in0.0 mm 0.00 in0.0 mm 0.00 in0.0 mm
12:45 PM 67.3°F19.6°C 48.0°F8.9°C 50% 1.1 mph NE1.8 kmh NE 4.3 mph6.9 kmh 30.01 in1016.3 mb 0.00 in0.0 mm 0.00 in0.0 mm 0.00 in0.0 mm
01:00 PM 67.1°F19.5°C 46.2°F7.9°C 47% 7.9 mph N12.7 kmh N 15.4 mph24.8 kmh 29.98 in1015.2 mb 0.00 in0.0 mm 0.00 in0.0 mm 0.00 in0.0 mm
01:15 PM 68.0°F20.0°C 48.7°F9.3°C 50% 2.7 mph SE4.3 kmh SE 6.8 mph10.9 kmh 30.01 in1016.3 mb 0.00 in0.0 mm 0.00 in0.0 mm 0.00 in0.0 mm
01:30 PM 67.1°F19.5°C 46.7°F8.2°C 48% 1.5 mph NNW2.4 kmh NNW 6.1 mph9.8 kmh 30.01 in1016.3 mb 0.00 in0.0 mm 0.00 in0.0 mm 0.00 in0.0 mm
01:45 PM 67.5°F19.7°C 47.1°F8.4°C 48% 3.2 mph N5.1 kmh N 10.0 mph16.1 kmh 29.98 in1015.2 mb 0.00 in0.0 mm 0.00 in0.0 mm 0.00 in0.0 mm
02:00 PM 68.2°F20.1°C 48.3°F9.1°C 49% 2.6 mph NW4.2 kmh NW 6.8 mph10.9 kmh 29.98 in1015.2 mb 0.00 in0.0 mm 0.00 in0.0 mm 0.00 in0.0 mm
02:15 PM 68.0°F20.0°C 48.1°F8.9°C 49% 2.1 mph NNW3.4 kmh NNW 6.4 mph10.3 kmh 29.98 in1015.2 mb 0.00 in0.0 mm 0.00 in0.0 mm 0.00 in0.0 mm
02:30 PM 69.1°F20.6°C 49.7°F9.8°C 50% 5.5 mph WNW8.9 kmh WNW 13.6 mph21.9 kmh 29.98 in1015.2 mb 0.00 in0.0 mm 0.00 in0.0 mm 0.00 in0.0 mm
02:45 PM 68.7°F20.4°C 49.3°F9.6°C 50% 4.2 mph NW6.8 kmh NW 11.8 mph19.0 kmh 29.98 in1015.2 mb 0.00 in0.0 mm 0.00 in0.0 mm 0.00 in0.0 mm
03:00 PM 68.5°F20.3°C 49.2°F9.6°C 50% 4.9 mph WNW7.9 kmh WNW 11.8 mph19.0 kmh 29.98 in1015.2 mb 0.00 in0.0 mm 0.00 in0.0 mm 0.00 in0.0 mm
03:15 PM 68.7°F20.4°C 49.3°F9.6°C 50% 4.7 mph NW7.6 kmh NW 12.5 mph20.1 kmh 30.01 in1016.3 mb 0.00 in0.0 mm 0.00 in0.0 mm 0.00 in0.0 mm
03:30 PM 68.9°F20.5°C 49.5°F9.7°C 50% 5.5 mph WNW8.9 kmh WNW 12.5 mph20.1 kmh 29.98 in1015.2 mb 0.00 in0.0 mm 0.00 in0.0 mm 0.00 in0.0 mm
03:45 PM 67.8°F19.9°C 48.0°F8.9°C 49% 5.4 mph NW8.7 kmh NW 9.7 mph15.6 kmh 29.98 in1015.2 mb 0.00 in0.0 mm 0.00 in0.0 mm 0.00 in0.0 mm
04:00 PM 66.9°F19.4°C 47.7°F8.7°C 50% 4.9 mph WNW7.9 kmh WNW 10.4 mph16.7 kmh 29.98 in1015.2 mb 0.00 in0.0 mm 0.00 in0.0 mm 0.00 in0.0 mm
04:15 PM 66.7°F19.3°C 47.5°F8.6°C 50% 3.8 mph WNW6.1 kmh WNW 8.9 mph14.3 kmh 29.98 in1015.2 mb 0.00 in0.0 mm 0.00 in0.0 mm 0.00 in0.0 mm
04:30 PM 66.2°F19.0°C 47.0°F8.3°C 50% 4.4 mph NW7.1 kmh NW 14.0 mph22.5 kmh 29.98 in1015.2 mb 0.00 in0.0 mm 0.00 in0.0 mm 0.00 in0.0 mm
04:45 PM 65.5°F18.6°C 46.9°F8.3°C 51% 4.1 mph NW6.6 kmh NW 6.8 mph10.9 kmh 29.98 in1015.2 mb 0.00 in0.0 mm 0.00 in0.0 mm 0.00 in0.0 mm
05:00 PM 64.9°F18.3°C 46.9°F8.3°C 52% 4.7 mph NW7.6 kmh NW 10.0 mph16.1 kmh 29.98 in1015.2 mb 0.00 in0.0 mm 0.00 in0.0 mm 0.00 in0.0 mm
05:15 PM 64.2°F17.9°C 46.7°F8.2°C 53% 5.8 mph W9.3 kmh W 8.9 mph14.3 kmh 29.98 in1015.2 mb 0.00 in0.0 mm 0.00 in0.0 mm 0.00 in0.0 mm
05:30 PM 63.5°F17.5°C 46.1°F7.8°C 53% 3.5 mph NW5.6 kmh NW 8.6 mph13.8 kmh 29.98 in1015.2 mb 0.00 in0.0 mm 0.00 in0.0 mm 0.00 in0.0 mm
05:45 PM 63.0°F17.2°C 45.6°F7.6°C 53% 2.9 mph WNW4.7 kmh WNW 5.4 mph8.7 kmh 29.98 in1015.2 mb 0.00 in0.0 mm 0.00 in0.0 mm 0.00 in0.0 mm
06:00 PM 62.2°F16.8°C 45.9°F7.7°C 55% 2.5 mph WNW4.0 kmh WNW 4.3 mph6.9 kmh 29.98 in1015.2 mb 0.00 in0.0 mm 0.00 in0.0 mm 0.00 in0.0 mm
06:15 PM 61.9°F16.6°C 45.5°F7.5°C 55% 1.3 mph NW2.1 kmh NW 2.1 mph3.4 kmh 29.98 in1015.2 mb 0.00 in0.0 mm 0.00 in0.0 mm 0.00 in0.0 mm
06:30 PM 61.2°F16.2°C 45.8°F7.7°C 57% 0.3 mph W0.5 kmh W 2.1 mph3.4 kmh 29.98 in1015.2 mb 0.00 in0.0 mm 0.00 in0.0 mm 0.00 in0.0 mm
06:45 PM 59.9°F15.5°C 46.0°F7.8°C 60% 2.0 mph W3.2 kmh W 4.3 mph6.9 kmh 29.95 in1014.2 mb 0.00 in0.0 mm 0.00 in0.0 mm 0.00 in0.0 mm
07:00 PM 58.8°F14.9°C 45.8°F7.7°C 62% 0.5 mph W0.8 kmh W 1.8 mph2.9 kmh 29.95 in1014.2 mb 0.00 in0.0 mm 0.00 in0.0 mm 0.00 in0.0 mm
07:15 PM 58.1°F14.5°C 45.6°F7.6°C 63% 0.4 mph W0.6 kmh W 1.8 mph2.9 kmh 29.98 in1015.2 mb 0.00 in0.0 mm 0.00 in0.0 mm 0.00 in0.0 mm
07:30 PM 57.2°F14.0°C 45.1°F7.3°C 64% Calm Calm -- 29.95 in1014.2 mb 0.00 in0.0 mm 0.00 in0.0 mm 0.00 in0.0 mm
07:45 PM 56.7°F13.7°C 45.0°F7.2°C 65% 1.5 mph W2.4 kmh W 1.8 mph2.9 kmh 29.98 in1015.2 mb 0.00 in0.0 mm 0.00 in0.0 mm 0.00 in0.0 mm
08:00 PM 56.3°F13.5°C 45.1°F7.3°C 66% 0.2 mph W0.3 kmh W 2.5 mph4.0 kmh 29.98 in1015.2 mb 0.00 in0.0 mm 0.00 in0.0 mm 0.00 in0.0 mm
08:15 PM 55.8°F13.2°C 44.6°F7.0°C 66% Calm Calm -- 29.95 in1014.2 mb 0.00 in0.0 mm 0.00 in0.0 mm 0.00 in0.0 mm
08:30 PM 55.4°F13.0°C 44.6°F7.0°C 67% Calm Calm -- 29.95 in1014.2 mb 0.00 in0.0 mm 0.00 in0.0 mm 0.00 in0.0 mm
08:45 PM 55.0°F12.8°C 44.3°F6.8°C 67% Calm Calm -- 29.98 in1015.2 mb 0.00 in0.0 mm 0.00 in0.0 mm 0.00 in0.0 mm
09:00 PM 54.9°F12.7°C 44.5°F6.9°C 68% Calm Calm -- 29.98 in1015.2 mb 0.00 in0.0 mm 0.00 in0.0 mm 0.00 in0.0 mm
09:15 PM 53.8°F12.1°C 43.5°F6.4°C 68% Calm Calm -- 29.98 in1015.2 mb 0.00 in0.0 mm 0.00 in0.0 mm 0.00 in0.0 mm
09:30 PM 52.9°F11.6°C 43.7°F6.5°C 71% Calm Calm -- 29.98 in1015.2 mb 0.00 in0.0 mm 0.00 in0.0 mm 0.00 in0.0 mm
09:45 PM 52.2°F11.2°C 43.8°F6.6°C 73% Calm Calm -- 29.98 in1015.2 mb 0.00 in0.0 mm 0.00 in0.0 mm 0.00 in0.0 mm
10:00 PM 51.6°F10.9°C 43.6°F6.4°C 74% Calm Calm -- 29.98 in1015.2 mb 0.00 in0.0 mm 0.00 in0.0 mm 0.00 in0.0 mm
10:15 PM 51.3°F10.7°C 43.6°F6.4°C 75% Calm Calm -- 29.98 in1015.2 mb 0.00 in0.0 mm 0.00 in0.0 mm 0.00 in0.0 mm
10:30 PM 51.1°F10.6°C 44.1°F6.7°C 77% Calm Calm -- 29.98 in1015.2 mb 0.00 in0.0 mm 0.00 in0.0 mm 0.00 in0.0 mm
10:45 PM 50.9°F10.5°C 43.9°F6.6°C 77% 1.9 mph ESE3.1 kmh ESE 3.6 mph5.8 kmh 29.98 in1015.2 mb 0.00 in0.0 mm 0.00 in0.0 mm 0.00 in0.0 mm
11:00 PM 50.7°F10.4°C 44.1°F6.7°C 78% 2.9 mph ESE4.7 kmh ESE 3.6 mph5.8 kmh 29.95 in1014.2 mb 0.00 in0.0 mm 0.00 in0.0 mm 0.00 in0.0 mm
11:15 PM 50.5°F10.3°C 43.9°F6.6°C 78% Calm Calm -- 29.95 in1014.2 mb 0.00 in0.0 mm 0.00 in0.0 mm 0.00 in0.0 mm
11:30 PM 50.4°F10.2°C 44.1°F6.7°C 79% Calm Calm -- 29.98 in1015.2 mb 0.00 in0.0 mm 0.00 in0.0 mm 0.00 in0.0 mm
11:45 PM 50.4°F10.2°C 44.1°F6.7°C 79% 5.8 mph SE9.3 kmh SE 9.7 mph15.6 kmh 29.95 in1014.2 mb 0.00 in0.0 mm 0.00 in0.0 mm 0.00 in0.0 mm